This is the latest recevied weather packets stored in our database for station/object LU5DTF-1. If no packets are shown the sender has not sent any weather packets the latest 10 day(s).
| Time | Temp. | Humidity | Pressure | Rain* | Wind** | Luminosity | Snow |
|---|---|---|---|---|---|---|---|
| 1777648497 | 20.56° C | 62% | 1008.9 hPa | 0 mm | - | - | - |
| 1777648197 | 20.56° C | 62% | 1009 hPa | 0 mm | - | - | - |
| 1777646698 | 20° C | 64% | 1009 hPa | 0 mm | - | - | - |
| 1777646398 | 19.44° C | 64% | 1009 hPa | 0 mm | - | - | - |
| 1777646098 | 19.44° C | 65% | 1009.2 hPa | 0 mm | - | - | - |
| 1777645798 | 19.44° C | 66% | 1009.2 hPa | 0 mm | - | - | - |
| 1777645498 | 18.89° C | 66% | 1009.2 hPa | 0 mm | - | - | - |
| 1777645198 | 18.89° C | 68% | 1009.1 hPa | 0 mm | - | - | - |
| 1777644899 | 18.89° C | 68% | 1009.3 hPa | 0 mm | - | - | - |
| 1777644598 | 18.89° C | 68% | 1009.2 hPa | 0 mm | - | - | - |
| 1777644298 | 18.33° C | 68% | 1009.4 hPa | 0 mm | - | - | - |
| 1777643999 | 18.33° C | 69% | 1009.4 hPa | 0 mm | - | - | - |
| 1777643698 | 18.33° C | 69% | 1009.5 hPa | 0 mm | - | - | - |
| 1777642798 | 17.78° C | 70% | 1009.5 hPa | 0 mm | - | - | - |
| 1777642498 | 17.78° C | 70% | 1009.6 hPa | 0 mm | - | - | - |
| 1777642198 | 17.22° C | 71% | 1009.5 hPa | 0 mm | - | - | - |
| 1777641898 | 17.22° C | 72% | 1009.6 hPa | 0 mm | - | - | - |
| 1777641301 | 16.67° C | 73% | 1009.6 hPa | 0 mm | - | - | - |
| 1777640999 | 16.67° C | 74% | 1009.6 hPa | 0 mm | - | - | - |
| 1777638598 | 14.44° C | 77% | 1010.2 hPa | 0 mm | - | - | - |
| 1777638298 | 13.89° C | 78% | 1010.2 hPa | 0 mm | - | - | - |
| 1777637998 | 13.89° C | 78% | 1010.2 hPa | 0 mm | - | - | - |
| 1777637698 | 13.89° C | 78% | 1010.2 hPa | 0 mm | - | - | - |
| 1777637098 | 13.33° C | 78% | 1010.3 hPa | 0 mm | - | - | - |
| 1777636798 | 13.33° C | 78% | 1010.3 hPa | 0 mm | - | - | - |
* Rain latest hour (hover to see other rain measurements)
** Current wind speed in m/s (hover to see current wind gust speed)